sensor_id;sensor_type;location;lat;lon;timestamp;P1;durP1;ratioP1;P2;durP2;ratioP2
83288;SDS011;73193;50.866;5.420;2024-02-28T00:00:16;34.30;;;14.75;;
83288;SDS011;73193;50.866;5.420;2024-02-28T00:01:50;36.05;;;15.35;;
83288;SDS011;73193;50.866;5.420;2024-02-28T00:03:21;36.45;;;14.73;;
83288;SDS011;73193;50.866;5.420;2024-02-28T00:04:53;36.00;;;15.32;;
83288;SDS011;73193;50.866;5.420;2024-02-28T00:06:24;31.40;;;15.27;;
83288;SDS011;73193;50.866;5.420;2024-02-28T00:07:55;36.72;;;15.63;;
83288;SDS011;73193;50.866;5.420;2024-02-28T00:09:26;32.30;;;15.55;;
83288;SDS011;73193;50.866;5.420;2024-02-28T00:10:56;36.70;;;15.23;;
83288;SDS011;73193;50.866;5.420;2024-02-28T00:12:27;38.20;;;16.45;;
83288;SDS011;73193;50.866;5.420;2024-02-28T00:13:58;31.80;;;14.23;;
83288;SDS011;73193;50.866;5.420;2024-02-28T00:15:30;36.50;;;15.50;;
83288;SDS011;73193;50.866;5.420;2024-02-28T00:17:00;38.60;;;15.90;;
83288;SDS011;73193;50.866;5.420;2024-02-28T00:18:31;40.85;;;16.20;;
83288;SDS011;73193;50.866;5.420;2024-02-28T00:20:02;38.65;;;16.92;;
83288;SDS011;73193;50.866;5.420;2024-02-28T00:21:33;39.38;;;16.67;;
83288;SDS011;73193;50.866;5.420;2024-02-28T00:23:03;39.80;;;16.38;;
83288;SDS011;73193;50.866;5.420;2024-02-28T00:24:34;41.50;;;17.63;;
83288;SDS011;73193;50.866;5.420;2024-02-28T00:26:05;37.92;;;17.05;;
83288;SDS011;73193;50.866;5.420;2024-02-28T00:27:35;41.35;;;17.27;;
83288;SDS011;73193;50.866;5.420;2024-02-28T00:29:06;43.90;;;17.08;;
83288;SDS011;73193;50.866;5.420;2024-02-28T00:30:36;37.88;;;17.00;;
83288;SDS011;73193;50.866;5.420;2024-02-28T00:32:07;38.00;;;15.88;;
83288;SDS011;73193;50.866;5.420;2024-02-28T00:33:38;40.88;;;18.15;;
83288;SDS011;73193;50.866;5.420;2024-02-28T00:35:10;46.63;;;19.33;;
83288;SDS011;73193;50.866;5.420;2024-02-28T00:36:40;38.95;;;17.55;;
83288;SDS011;73193;50.866;5.420;2024-02-28T00:38:11;40.42;;;16.85;;
83288;SDS011;73193;50.866;5.420;2024-02-28T00:39:43;39.22;;;16.83;;
83288;SDS011;73193;50.866;5.420;2024-02-28T00:41:14;40.20;;;17.70;;
83288;SDS011;73193;50.866;5.420;2024-02-28T00:42:45;44.05;;;17.02;;
83288;SDS011;73193;50.866;5.420;2024-02-28T00:44:16;40.80;;;16.90;;
83288;SDS011;73193;50.866;5.420;2024-02-28T00:45:46;37.10;;;15.80;;
83288;SDS011;73193;50.866;5.420;2024-02-28T00:47:17;39.17;;;16.90;;
83288;SDS011;73193;50.866;5.420;2024-02-28T00:48:48;36.83;;;15.70;;
83288;SDS011;73193;50.866;5.420;2024-02-28T00:50:18;37.30;;;15.25;;
83288;SDS011;73193;50.866;5.420;2024-02-28T00:51:49;38.33;;;16.33;;
83288;SDS011;73193;50.866;5.420;2024-02-28T00:53:20;45.22;;;18.33;;
83288;SDS011;73193;50.866;5.420;2024-02-28T00:54:51;41.97;;;17.85;;
83288;SDS011;73193;50.866;5.420;2024-02-28T00:56:21;38.00;;;17.00;;
83288;SDS011;73193;50.866;5.420;2024-02-28T00:57:52;35.90;;;16.13;;
83288;SDS011;73193;50.866;5.420;2024-02-28T00:59:23;38.80;;;16.52;;
83288;SDS011;73193;50.866;5.420;2024-02-28T01:00:53;42.47;;;17.50;;
83288;SDS011;73193;50.866;5.420;2024-02-28T01:02:24;40.33;;;16.95;;
83288;SDS011;73193;50.866;5.420;2024-02-28T01:03:55;41.13;;;17.27;;
83288;SDS011;73193;50.866;5.420;2024-02-28T01:05:25;41.95;;;18.00;;
83288;SDS011;73193;50.866;5.420;2024-02-28T01:06:56;38.97;;;16.67;;
83288;SDS011;73193;50.866;5.420;2024-02-28T01:08:26;40.03;;;16.15;;
83288;SDS011;73193;50.866;5.420;2024-02-28T01:09:57;39.05;;;17.15;;
83288;SDS011;73193;50.866;5.420;2024-02-28T01:11:28;36.92;;;15.40;;
83288;SDS011;73193;50.866;5.420;2024-02-28T01:12:58;37.08;;;16.83;;
83288;SDS011;73193;50.866;5.420;2024-02-28T01:14:29;39.22;;;17.10;;
83288;SDS011;73193;50.866;5.420;2024-02-28T01:16:00;41.72;;;16.70;;
83288;SDS011;73193;50.866;5.420;2024-02-28T01:17:30;38.85;;;15.98;;
83288;SDS011;73193;50.866;5.420;2024-02-28T01:19:01;39.97;;;16.02;;
83288;SDS011;73193;50.866;5.420;2024-02-28T01:20:33;43.45;;;16.90;;
83288;SDS011;73193;50.866;5.420;2024-02-28T01:22:03;35.88;;;15.18;;
83288;SDS011;73193;50.866;5.420;2024-02-28T01:23:34;40.85;;;15.82;;
83288;SDS011;73193;50.866;5.420;2024-02-28T01:25:05;38.28;;;16.17;;
83288;SDS011;73193;50.866;5.420;2024-02-28T01:26:36;36.83;;;16.20;;
83288;SDS011;73193;50.866;5.420;2024-02-28T01:28:07;41.45;;;17.25;;
83288;SDS011;73193;50.866;5.420;2024-02-28T01:29:37;42.97;;;17.15;;
83288;SDS011;73193;50.866;5.420;2024-02-28T01:31:08;50.38;;;20.08;;
83288;SDS011;73193;50.866;5.420;2024-02-28T01:32:39;45.60;;;17.42;;
83288;SDS011;73193;50.866;5.420;2024-02-28T01:34:09;44.75;;;17.67;;
83288;SDS011;73193;50.866;5.420;2024-02-28T01:35:40;48.42;;;18.27;;
83288;SDS011;73193;50.866;5.420;2024-02-28T01:37:11;51.17;;;18.98;;
83288;SDS011;73193;50.866;5.420;2024-02-28T01:38:41;47.80;;;19.20;;
83288;SDS011;73193;50.866;5.420;2024-02-28T01:40:12;46.50;;;18.85;;
83288;SDS011;73193;50.866;5.420;2024-02-28T01:41:55;44.45;;;17.25;;
83288;SDS011;73193;50.866;5.420;2024-02-28T01:43:27;43.70;;;17.25;;
83288;SDS011;73193;50.866;5.420;2024-02-28T01:44:57;47.00;;;19.50;;
83288;SDS011;73193;50.866;5.420;2024-02-28T01:46:28;38.65;;;17.50;;
83288;SDS011;73193;50.866;5.420;2024-02-28T01:47:59;41.55;;;18.02;;
83288;SDS011;73193;50.866;5.420;2024-02-28T01:49:30;48.05;;;18.83;;
83288;SDS011;73193;50.866;5.420;2024-02-28T01:51:01;43.53;;;18.42;;
83288;SDS011;73193;50.866;5.420;2024-02-28T01:54:03;47.92;;;17.90;;
83288;SDS011;73193;50.866;5.420;2024-02-28T01:55:34;42.60;;;17.77;;
83288;SDS011;73193;50.866;5.420;2024-02-28T01:57:08;39.53;;;17.08;;
83288;SDS011;73193;50.866;5.420;2024-02-28T01:58:39;47.10;;;16.55;;
83288;SDS011;73193;50.866;5.420;2024-02-28T02:00:10;41.95;;;18.27;;
83288;SDS011;73193;50.866;5.420;2024-02-28T02:01:41;46.25;;;17.65;;
83288;SDS011;73193;50.866;5.420;2024-02-28T02:03:13;47.25;;;19.13;;
83288;SDS011;73193;50.866;5.420;2024-02-28T02:04:43;45.97;;;19.02;;
83288;SDS011;73193;50.866;5.420;2024-02-28T02:06:14;42.67;;;16.88;;
83288;SDS011;73193;50.866;5.420;2024-02-28T02:07:45;42.03;;;16.33;;
83288;SDS011;73193;50.866;5.420;2024-02-28T02:09:18;44.20;;;16.83;;
83288;SDS011;73193;50.866;5.420;2024-02-28T02:10:48;46.33;;;18.50;;
83288;SDS011;73193;50.866;5.420;2024-02-28T02:12:19;43.42;;;17.63;;
83288;SDS011;73193;50.866;5.420;2024-02-28T02:13:50;47.35;;;18.88;;
83288;SDS011;73193;50.866;5.420;2024-02-28T02:15:22;47.28;;;18.77;;
83288;SDS011;73193;50.866;5.420;2024-02-28T02:16:52;48.10;;;19.45;;
83288;SDS011;73193;50.866;5.420;2024-02-28T02:18:23;55.92;;;20.33;;
83288;SDS011;73193;50.866;5.420;2024-02-28T02:19:53;50.28;;;20.10;;
83288;SDS011;73193;50.866;5.420;2024-02-28T02:21:26;46.75;;;18.60;;
83288;SDS011;73193;50.866;5.420;2024-02-28T02:23:05;45.28;;;18.20;;
83288;SDS011;73193;50.866;5.420;2024-02-28T02:24:35;45.95;;;17.90;;
83288;SDS011;73193;50.866;5.420;2024-02-28T02:26:06;46.10;;;18.23;;
83288;SDS011;73193;50.866;5.420;2024-02-28T02:27:37;45.65;;;19.85;;
83288;SDS011;73193;50.866;5.420;2024-02-28T02:29:08;46.35;;;18.17;;
83288;SDS011;73193;50.866;5.420;2024-02-28T02:30:39;49.20;;;18.50;;
83288;SDS011;73193;50.866;5.420;2024-02-28T02:32:11;48.03;;;18.73;;
83288;SDS011;73193;50.866;5.420;2024-02-28T02:33:42;53.35;;;19.88;;
83288;SDS011;73193;50.866;5.420;2024-02-28T02:35:12;45.38;;;17.95;;
83288;SDS011;73193;50.866;5.420;2024-02-28T02:36:43;49.20;;;20.40;;
83288;SDS011;73193;50.866;5.420;2024-02-28T02:38:14;50.28;;;19.58;;
83288;SDS011;73193;50.866;5.420;2024-02-28T02:39:44;48.88;;;20.13;;
83288;SDS011;73193;50.866;5.420;2024-02-28T02:41:15;47.78;;;19.60;;
83288;SDS011;73193;50.866;5.420;2024-02-28T02:42:45;47.92;;;18.33;;
83288;SDS011;73193;50.866;5.420;2024-02-28T02:44:16;43.80;;;17.40;;
83288;SDS011;73193;50.866;5.420;2024-02-28T02:45:47;41.50;;;19.05;;
83288;SDS011;73193;50.866;5.420;2024-02-28T02:47:17;51.00;;;19.70;;
83288;SDS011;73193;50.866;5.420;2024-02-28T02:48:48;41.67;;;18.40;;
83288;SDS011;73193;50.866;5.420;2024-02-28T02:50:19;43.45;;;17.80;;
83288;SDS011;73193;50.866;5.420;2024-02-28T02:51:49;43.67;;;18.60;;
83288;SDS011;73193;50.866;5.420;2024-02-28T02:53:20;46.33;;;20.42;;
83288;SDS011;73193;50.866;5.420;2024-02-28T02:54:51;48.17;;;19.38;;
83288;SDS011;73193;50.866;5.420;2024-02-28T02:56:21;52.25;;;20.70;;
83288;SDS011;73193;50.866;5.420;2024-02-28T02:57:52;57.40;;;22.38;;
83288;SDS011;73193;50.866;5.420;2024-02-28T02:59:23;53.80;;;20.83;;
83288;SDS011;73193;50.866;5.420;2024-02-28T03:00:53;50.22;;;20.05;;
83288;SDS011;73193;50.866;5.420;2024-02-28T03:02:24;51.85;;;21.98;;
83288;SDS011;73193;50.866;5.420;2024-02-28T03:03:55;54.58;;;19.98;;
83288;SDS011;73193;50.866;5.420;2024-02-28T03:05:25;57.05;;;21.73;;
83288;SDS011;73193;50.866;5.420;2024-02-28T03:06:56;60.75;;;19.30;;
83288;SDS011;73193;50.866;5.420;2024-02-28T03:08:26;56.92;;;20.70;;
83288;SDS011;73193;50.866;5.420;2024-02-28T03:09:57;93.40;;;21.92;;
83288;SDS011;73193;50.866;5.420;2024-02-28T03:11:29;116.32;;;24.92;;
83288;SDS011;73193;50.866;5.420;2024-02-28T03:12:59;128.80;;;25.23;;
83288;SDS011;73193;50.866;5.420;2024-02-28T03:14:30;134.95;;;23.58;;
83288;SDS011;73193;50.866;5.420;2024-02-28T03:16:03;115.47;;;21.80;;
83288;SDS011;73193;50.866;5.420;2024-02-28T03:17:34;160.60;;;25.67;;
83288;SDS011;73193;50.866;5.420;2024-02-28T03:19:04;119.90;;;22.20;;
83288;SDS011;73193;50.866;5.420;2024-02-28T03:20:35;68.32;;;18.88;;
83288;SDS011;73193;50.866;5.420;2024-02-28T03:22:08;98.03;;;22.33;;
83288;SDS011;73193;50.866;5.420;2024-02-28T03:23:39;96.57;;;20.13;;
83288;SDS011;73193;50.866;5.420;2024-02-28T03:25:09;60.25;;;17.15;;
83288;SDS011;73193;50.866;5.420;2024-02-28T03:26:40;80.70;;;18.80;;
83288;SDS011;73193;50.866;5.420;2024-02-28T03:28:11;102.65;;;20.95;;
83288;SDS011;73193;50.866;5.420;2024-02-28T03:29:41;64.07;;;17.45;;
83288;SDS011;73193;50.866;5.420;2024-02-28T03:31:12;67.63;;;17.77;;
83288;SDS011;73193;50.866;5.420;2024-02-28T03:32:43;72.63;;;18.55;;
83288;SDS011;73193;50.866;5.420;2024-02-28T03:34:13;60.78;;;18.15;;
83288;SDS011;73193;50.866;5.420;2024-02-28T03:35:44;66.28;;;18.73;;
83288;SDS011;73193;50.866;5.420;2024-02-28T03:37:15;44.08;;;17.38;;
83288;SDS011;73193;50.866;5.420;2024-02-28T03:38:45;109.72;;;20.83;;
83288;SDS011;73193;50.866;5.420;2024-02-28T03:40:16;58.78;;;16.70;;
83288;SDS011;73193;50.866;5.420;2024-02-28T03:41:47;51.33;;;17.63;;
83288;SDS011;73193;50.866;5.420;2024-02-28T03:43:17;47.03;;;16.38;;
83288;SDS011;73193;50.866;5.420;2024-02-28T03:44:48;53.20;;;17.35;;
83288;SDS011;73193;50.866;5.420;2024-02-28T03:46:18;123.05;;;19.52;;
83288;SDS011;73193;50.866;5.420;2024-02-28T03:47:50;62.05;;;16.65;;
83288;SDS011;73193;50.866;5.420;2024-02-28T03:49:20;65.85;;;16.48;;
83288;SDS011;73193;50.866;5.420;2024-02-28T03:50:51;69.50;;;17.55;;
83288;SDS011;73193;50.866;5.420;2024-02-28T03:52:22;43.47;;;14.98;;
83288;SDS011;73193;50.866;5.420;2024-02-28T03:53:53;74.82;;;17.17;;
83288;SDS011;73193;50.866;5.420;2024-02-28T03:55:24;87.13;;;18.70;;
83288;SDS011;73193;50.866;5.420;2024-02-28T03:56:55;41.38;;;15.77;;
83288;SDS011;73193;50.866;5.420;2024-02-28T03:58:25;41.88;;;15.55;;
83288;SDS011;73193;50.866;5.420;2024-02-28T03:59:56;81.18;;;16.95;;
83288;SDS011;73193;50.866;5.420;2024-02-28T04:01:27;53.50;;;16.77;;
83288;SDS011;73193;50.866;5.420;2024-02-28T04:02:57;57.92;;;16.83;;
83288;SDS011;73193;50.866;5.420;2024-02-28T04:04:28;58.10;;;16.30;;
83288;SDS011;73193;50.866;5.420;2024-02-28T04:05:58;56.13;;;16.05;;
83288;SDS011;73193;50.866;5.420;2024-02-28T04:07:29;69.00;;;16.35;;
83288;SDS011;73193;50.866;5.420;2024-02-28T04:09:00;61.28;;;15.10;;
83288;SDS011;73193;50.866;5.420;2024-02-28T04:10:31;71.60;;;16.67;;
83288;SDS011;73193;50.866;5.420;2024-02-28T04:12:01;47.83;;;15.05;;
83288;SDS011;73193;50.866;5.420;2024-02-28T04:13:33;57.80;;;16.23;;
83288;SDS011;73193;50.866;5.420;2024-02-28T04:15:04;78.40;;;17.25;;
83288;SDS011;73193;50.866;5.420;2024-02-28T04:16:34;57.58;;;15.13;;
83288;SDS011;73193;50.866;5.420;2024-02-28T04:18:11;84.82;;;20.17;;
83288;SDS011;73193;50.866;5.420;2024-02-28T04:19:42;73.13;;;16.77;;
83288;SDS011;73193;50.866;5.420;2024-02-28T04:21:13;64.18;;;15.80;;
83288;SDS011;73193;50.866;5.420;2024-02-28T04:22:43;44.30;;;14.85;;
83288;SDS011;73193;50.866;5.420;2024-02-28T04:24:14;64.38;;;16.45;;
83288;SDS011;73193;50.866;5.420;2024-02-28T04:25:44;69.90;;;15.45;;
83288;SDS011;73193;50.866;5.420;2024-02-28T04:27:15;66.30;;;16.20;;
83288;SDS011;73193;50.866;5.420;2024-02-28T04:28:46;78.43;;;15.88;;
83288;SDS011;73193;50.866;5.420;2024-02-28T04:30:16;43.30;;;15.23;;
83288;SDS011;73193;50.866;5.420;2024-02-28T04:31:47;60.33;;;15.95;;
83288;SDS011;73193;50.866;5.420;2024-02-28T04:33:17;93.38;;;18.17;;
83288;SDS011;73193;50.866;5.420;2024-02-28T04:34:48;54.75;;;15.27;;
83288;SDS011;73193;50.866;5.420;2024-02-28T04:36:19;37.30;;;13.98;;
83288;SDS011;73193;50.866;5.420;2024-02-28T04:37:49;82.45;;;18.42;;
83288;SDS011;73193;50.866;5.420;2024-02-28T04:39:20;66.22;;;16.70;;
83288;SDS011;73193;50.866;5.420;2024-02-28T04:40:51;73.72;;;17.58;;
83288;SDS011;73193;50.866;5.420;2024-02-28T04:42:22;71.00;;;16.58;;
83288;SDS011;73193;50.866;5.420;2024-02-28T04:43:52;47.78;;;15.00;;
83288;SDS011;73193;50.866;5.420;2024-02-28T04:45:23;44.13;;;15.68;;
83288;SDS011;73193;50.866;5.420;2024-02-28T04:46:54;43.42;;;15.98;;
83288;SDS011;73193;50.866;5.420;2024-02-28T04:48:24;58.95;;;16.10;;
83288;SDS011;73193;50.866;5.420;2024-02-28T04:49:55;47.92;;;14.40;;
83288;SDS011;73193;50.866;5.420;2024-02-28T04:51:25;35.88;;;14.70;;
83288;SDS011;73193;50.866;5.420;2024-02-28T04:52:56;38.72;;;14.13;;
83288;SDS011;73193;50.866;5.420;2024-02-28T04:54:27;33.28;;;13.55;;
83288;SDS011;73193;50.866;5.420;2024-02-28T04:55:57;40.75;;;15.07;;
83288;SDS011;73193;50.866;5.420;2024-02-28T04:57:28;40.20;;;14.07;;
83288;SDS011;73193;50.866;5.420;2024-02-28T04:58:58;33.83;;;13.93;;
83288;SDS011;73193;50.866;5.420;2024-02-28T05:00:29;30.52;;;13.57;;
83288;SDS011;73193;50.866;5.420;2024-02-28T05:02:00;37.95;;;14.30;;
83288;SDS011;73193;50.866;5.420;2024-02-28T05:03:31;30.38;;;13.82;;
83288;SDS011;73193;50.866;5.420;2024-02-28T05:05:01;31.45;;;13.82;;
83288;SDS011;73193;50.866;5.420;2024-02-28T05:06:32;27.17;;;12.95;;
83288;SDS011;73193;50.866;5.420;2024-02-28T05:08:03;27.52;;;13.15;;
83288;SDS011;73193;50.866;5.420;2024-02-28T05:09:34;32.15;;;13.43;;
83288;SDS011;73193;50.866;5.420;2024-02-28T05:11:05;32.10;;;13.95;;
83288;SDS011;73193;50.866;5.420;2024-02-28T05:12:36;34.13;;;14.10;;
83288;SDS011;73193;50.866;5.420;2024-02-28T05:14:06;31.92;;;13.48;;
83288;SDS011;73193;50.866;5.420;2024-02-28T05:15:37;33.95;;;14.90;;
83288;SDS011;73193;50.866;5.420;2024-02-28T05:17:08;33.10;;;14.27;;
83288;SDS011;73193;50.866;5.420;2024-02-28T05:18:38;29.77;;;13.55;;
83288;SDS011;73193;50.866;5.420;2024-02-28T05:20:09;29.38;;;13.35;;
83288;SDS011;73193;50.866;5.420;2024-02-28T05:21:40;28.80;;;13.55;;
83288;SDS011;73193;50.866;5.420;2024-02-28T05:23:14;30.65;;;12.73;;
83288;SDS011;73193;50.866;5.420;2024-02-28T05:24:47;29.70;;;13.13;;
83288;SDS011;73193;50.866;5.420;2024-02-28T05:26:18;30.98;;;13.13;;
83288;SDS011;73193;50.866;5.420;2024-02-28T05:27:48;34.05;;;14.18;;
83288;SDS011;73193;50.866;5.420;2024-02-28T05:29:19;34.35;;;14.27;;
83288;SDS011;73193;50.866;5.420;2024-02-28T05:30:50;31.80;;;14.00;;
83288;SDS011;73193;50.866;5.420;2024-02-28T05:32:20;29.60;;;14.75;;
83288;SDS011;73193;50.866;5.420;2024-02-28T05:33:51;31.10;;;13.90;;
83288;SDS011;73193;50.866;5.420;2024-02-28T05:35:26;32.50;;;13.90;;
83288;SDS011;73193;50.866;5.420;2024-02-28T05:36:57;29.45;;;13.20;;
83288;SDS011;73193;50.866;5.420;2024-02-28T05:38:29;29.08;;;13.10;;
83288;SDS011;73193;50.866;5.420;2024-02-28T05:40:00;32.28;;;14.00;;
83288;SDS011;73193;50.866;5.420;2024-02-28T05:41:31;30.17;;;14.10;;
83288;SDS011;73193;50.866;5.420;2024-02-28T05:43:01;28.98;;;13.95;;
83288;SDS011;73193;50.866;5.420;2024-02-28T05:44:34;32.28;;;14.30;;
83288;SDS011;73193;50.866;5.420;2024-02-28T05:46:04;29.83;;;14.73;;
83288;SDS011;73193;50.866;5.420;2024-02-28T05:47:35;29.15;;;12.73;;
83288;SDS011;73193;50.866;5.420;2024-02-28T05:49:06;31.48;;;13.52;;
83288;SDS011;73193;50.866;5.420;2024-02-28T05:52:09;26.98;;;12.55;;
83288;SDS011;73193;50.866;5.420;2024-02-28T05:53:41;30.25;;;14.57;;
83288;SDS011;73193;50.866;5.420;2024-02-28T05:56:43;32.47;;;13.27;;
83288;SDS011;73193;50.866;5.420;2024-02-28T05:58:13;33.75;;;12.70;;
83288;SDS011;73193;50.866;5.420;2024-02-28T05:59:45;35.17;;;14.50;;
83288;SDS011;73193;50.866;5.420;2024-02-28T06:01:16;28.80;;;12.27;;
83288;SDS011;73193;50.866;5.420;2024-02-28T06:02:48;34.40;;;13.88;;
83288;SDS011;73193;50.866;5.420;2024-02-28T06:04:18;33.47;;;13.63;;
83288;SDS011;73193;50.866;5.420;2024-02-28T06:05:49;31.00;;;13.35;;
83288;SDS011;73193;50.866;5.420;2024-02-28T06:07:20;32.40;;;13.48;;
83288;SDS011;73193;50.866;5.420;2024-02-28T06:08:50;30.63;;;13.68;;
83288;SDS011;73193;50.866;5.420;2024-02-28T06:10:21;32.78;;;14.05;;
83288;SDS011;73193;50.866;5.420;2024-02-28T06:11:52;32.55;;;13.63;;
83288;SDS011;73193;50.866;5.420;2024-02-28T06:13:23;33.22;;;13.90;;
83288;SDS011;73193;50.866;5.420;2024-02-28T06:14:53;33.53;;;12.88;;
83288;SDS011;73193;50.866;5.420;2024-02-28T06:16:24;38.85;;;14.27;;
83288;SDS011;73193;50.866;5.420;2024-02-28T06:17:58;35.03;;;13.93;;
83288;SDS011;73193;50.866;5.420;2024-02-28T06:19:31;36.58;;;13.52;;
83288;SDS011;73193;50.866;5.420;2024-02-28T06:21:02;31.35;;;12.93;;
83288;SDS011;73193;50.866;5.420;2024-02-28T06:22:33;34.85;;;14.88;;
83288;SDS011;73193;50.866;5.420;2024-02-28T06:24:03;35.17;;;14.27;;
83288;SDS011;73193;50.866;5.420;2024-02-28T06:25:34;33.17;;;13.82;;
83288;SDS011;73193;50.866;5.420;2024-02-28T06:27:05;31.13;;;12.85;;
83288;SDS011;73193;50.866;5.420;2024-02-28T06:28:35;28.48;;;11.57;;
83288;SDS011;73193;50.866;5.420;2024-02-28T06:30:08;33.28;;;13.13;;
83288;SDS011;73193;50.866;5.420;2024-02-28T06:31:39;30.05;;;12.48;;
83288;SDS011;73193;50.866;5.420;2024-02-28T06:33:10;35.38;;;12.68;;
83288;SDS011;73193;50.866;5.420;2024-02-28T06:34:40;41.75;;;13.00;;
83288;SDS011;73193;50.866;5.420;2024-02-28T06:36:12;32.28;;;11.70;;
83288;SDS011;73193;50.866;5.420;2024-02-28T06:37:42;43.47;;;15.10;;
83288;SDS011;73193;50.866;5.420;2024-02-28T06:39:19;36.35;;;12.57;;
83288;SDS011;73193;50.866;5.420;2024-02-28T06:40:50;39.72;;;12.35;;
83288;SDS011;73193;50.866;5.420;2024-02-28T06:42:20;49.13;;;14.73;;
83288;SDS011;73193;50.866;5.420;2024-02-28T06:43:51;48.58;;;12.80;;
83288;SDS011;73193;50.866;5.420;2024-02-28T06:45:22;45.38;;;12.98;;
83288;SDS011;73193;50.866;5.420;2024-02-28T06:46:52;44.75;;;13.07;;
83288;SDS011;73193;50.866;5.420;2024-02-28T06:48:23;41.03;;;13.07;;
83288;SDS011;73193;50.866;5.420;2024-02-28T06:49:54;36.03;;;12.35;;
83288;SDS011;73193;50.866;5.420;2024-02-28T06:51:24;39.35;;;12.40;;
83288;SDS011;73193;50.866;5.420;2024-02-28T06:52:55;44.53;;;12.38;;
83288;SDS011;73193;50.866;5.420;2024-02-28T06:54:25;46.75;;;12.82;;
83288;SDS011;73193;50.866;5.420;2024-02-28T06:55:56;58.20;;;14.02;;
83288;SDS011;73193;50.866;5.420;2024-02-28T06:57:27;51.72;;;12.75;;
83288;SDS011;73193;50.866;5.420;2024-02-28T06:58:57;55.15;;;14.50;;
83288;SDS011;73193;50.866;5.420;2024-02-28T07:00:28;56.40;;;13.52;;
83288;SDS011;73193;50.866;5.420;2024-02-28T07:01:59;63.10;;;14.88;;
83288;SDS011;73193;50.866;5.420;2024-02-28T07:03:29;45.88;;;12.77;;
83288;SDS011;73193;50.866;5.420;2024-02-28T07:05:00;45.95;;;12.75;;
83288;SDS011;73193;50.866;5.420;2024-02-28T07:06:31;60.63;;;14.57;;
83288;SDS011;73193;50.866;5.420;2024-02-28T07:08:02;43.13;;;11.50;;
83288;SDS011;73193;50.866;5.420;2024-02-28T07:09:34;69.72;;;13.35;;
83288;SDS011;73193;50.866;5.420;2024-02-28T07:11:04;46.15;;;12.23;;
83288;SDS011;73193;50.866;5.420;2024-02-28T07:12:42;69.15;;;13.70;;
83288;SDS011;73193;50.866;5.420;2024-02-28T07:14:13;52.70;;;13.05;;
83288;SDS011;73193;50.866;5.420;2024-02-28T07:15:43;91.60;;;15.13;;
83288;SDS011;73193;50.866;5.420;2024-02-28T07:17:14;68.82;;;14.23;;
83288;SDS011;73193;50.866;5.420;2024-02-28T07:18:45;66.85;;;13.77;;
83288;SDS011;73193;50.866;5.420;2024-02-28T07:20:16;67.93;;;14.07;;
83288;SDS011;73193;50.866;5.420;2024-02-28T07:21:46;59.70;;;13.75;;
83288;SDS011;73193;50.866;5.420;2024-02-28T07:23:17;84.40;;;15.90;;
83288;SDS011;73193;50.866;5.420;2024-02-28T07:24:48;54.70;;;13.13;;
83288;SDS011;73193;50.866;5.420;2024-02-28T07:26:19;35.30;;;12.25;;
83288;SDS011;73193;50.866;5.420;2024-02-28T07:27:49;97.10;;;15.85;;
83288;SDS011;73193;50.866;5.420;2024-02-28T07:29:20;46.72;;;12.93;;
83288;SDS011;73193;50.866;5.420;2024-02-28T07:30:51;67.40;;;12.75;;
83288;SDS011;73193;50.866;5.420;2024-02-28T07:32:21;48.67;;;11.65;;
83288;SDS011;73193;50.866;5.420;2024-02-28T07:33:53;61.63;;;13.32;;
83288;SDS011;73193;50.866;5.420;2024-02-28T07:35:23;89.55;;;14.32;;
83288;SDS011;73193;50.866;5.420;2024-02-28T07:36:54;83.97;;;15.20;;
83288;SDS011;73193;50.866;5.420;2024-02-28T07:38:25;103.03;;;17.20;;
83288;SDS011;73193;50.866;5.420;2024-02-28T07:39:57;43.00;;;12.35;;
83288;SDS011;73193;50.866;5.420;2024-02-28T07:41:28;78.72;;;14.80;;
83288;SDS011;73193;50.866;5.420;2024-02-28T07:42:58;62.95;;;13.63;;
83288;SDS011;73193;50.866;5.420;2024-02-28T07:44:29;56.28;;;13.45;;
83288;SDS011;73193;50.866;5.420;2024-02-28T07:46:00;84.18;;;14.68;;
83288;SDS011;73193;50.866;5.420;2024-02-28T07:47:31;105.15;;;16.35;;
83288;SDS011;73193;50.866;5.420;2024-02-28T07:49:01;70.90;;;14.57;;
83288;SDS011;73193;50.866;5.420;2024-02-28T07:50:32;70.20;;;13.77;;
83288;SDS011;73193;50.866;5.420;2024-02-28T07:52:03;59.03;;;12.80;;
83288;SDS011;73193;50.866;5.420;2024-02-28T07:53:35;89.00;;;16.13;;
83288;SDS011;73193;50.866;5.420;2024-02-28T07:55:05;49.28;;;12.43;;
83288;SDS011;73193;50.866;5.420;2024-02-28T07:56:36;66.32;;;14.40;;
83288;SDS011;73193;50.866;5.420;2024-02-28T07:58:07;54.85;;;13.65;;
83288;SDS011;73193;50.866;5.420;2024-02-28T07:59:42;74.75;;;15.13;;
83288;SDS011;73193;50.866;5.420;2024-02-28T08:01:13;71.22;;;14.02;;
83288;SDS011;73193;50.866;5.420;2024-02-28T08:02:44;59.10;;;12.35;;
83288;SDS011;73193;50.866;5.420;2024-02-28T08:04:15;67.10;;;12.85;;
83288;SDS011;73193;50.866;5.420;2024-02-28T08:05:45;75.95;;;15.32;;
83288;SDS011;73193;50.866;5.420;2024-02-28T08:08:47;46.00;;;12.18;;
83288;SDS011;73193;50.866;5.420;2024-02-28T08:10:18;59.83;;;13.75;;
83288;SDS011;73193;50.866;5.420;2024-02-28T08:11:49;61.10;;;14.05;;
83288;SDS011;73193;50.866;5.420;2024-02-28T08:13:20;51.35;;;13.75;;
83288;SDS011;73193;50.866;5.420;2024-02-28T08:14:51;48.72;;;13.65;;
83288;SDS011;73193;50.866;5.420;2024-02-28T08:16:21;50.50;;;14.23;;
83288;SDS011;73193;50.866;5.420;2024-02-28T08:17:52;67.78;;;14.20;;
83288;SDS011;73193;50.866;5.420;2024-02-28T08:19:23;51.17;;;13.68;;
83288;SDS011;73193;50.866;5.420;2024-02-28T08:20:54;50.35;;;12.82;;
83288;SDS011;73193;50.866;5.420;2024-02-28T08:22:27;54.35;;;14.18;;
83288;SDS011;73193;50.866;5.420;2024-02-28T08:23:58;49.45;;;12.57;;
83288;SDS011;73193;50.866;5.420;2024-02-28T08:25:28;45.50;;;13.98;;
83288;SDS011;73193;50.866;5.420;2024-02-28T08:26:59;46.67;;;13.85;;
83288;SDS011;73193;50.866;5.420;2024-02-28T08:28:30;47.22;;;13.27;;
83288;SDS011;73193;50.866;5.420;2024-02-28T08:30:00;45.97;;;14.30;;
83288;SDS011;73193;50.866;5.420;2024-02-28T08:31:32;47.22;;;14.32;;
83288;SDS011;73193;50.866;5.420;2024-02-28T08:33:03;43.85;;;13.30;;
83288;SDS011;73193;50.866;5.420;2024-02-28T08:34:36;47.65;;;14.13;;
83288;SDS011;73193;50.866;5.420;2024-02-28T08:36:06;44.45;;;13.65;;
83288;SDS011;73193;50.866;5.420;2024-02-28T08:37:40;41.63;;;14.23;;
83288;SDS011;73193;50.866;5.420;2024-02-28T08:39:11;44.72;;;13.95;;
83288;SDS011;73193;50.866;5.420;2024-02-28T08:40:41;46.72;;;14.75;;
83288;SDS011;73193;50.866;5.420;2024-02-28T08:42:12;44.20;;;13.90;;
83288;SDS011;73193;50.866;5.420;2024-02-28T08:43:42;43.67;;;13.18;;
83288;SDS011;73193;50.866;5.420;2024-02-28T08:45:13;36.40;;;11.52;;
83288;SDS011;73193;50.866;5.420;2024-02-28T08:46:46;38.80;;;13.60;;
83288;SDS011;73193;50.866;5.420;2024-02-28T08:48:17;45.47;;;13.52;;
83288;SDS011;73193;50.866;5.420;2024-02-28T08:49:48;34.25;;;11.70;;
83288;SDS011;73193;50.866;5.420;2024-02-28T08:51:19;42.28;;;13.75;;
83288;SDS011;73193;50.866;5.420;2024-02-28T08:52:50;42.17;;;13.50;;
83288;SDS011;73193;50.866;5.420;2024-02-28T08:54:20;39.90;;;12.85;;
83288;SDS011;73193;50.866;5.420;2024-02-28T08:55:51;46.30;;;13.57;;
83288;SDS011;73193;50.866;5.420;2024-02-28T08:57:21;41.78;;;12.23;;